createdAt,value
2023-02-08T00:01:26.905Z,13.07
2023-02-08T00:03:56.382Z,13.77
2023-02-08T00:06:24.787Z,16.53
2023-02-08T00:08:53.236Z,13.50
2023-02-08T00:11:23.079Z,13.53
2023-02-08T00:13:51.589Z,14.97
2023-02-08T00:16:20.195Z,14.00
2023-02-08T00:18:48.527Z,12.97
2023-02-08T00:21:19.085Z,13.30
2023-02-08T00:23:47.579Z,14.97
2023-02-08T00:26:16.944Z,11.80
2023-02-08T00:28:46.606Z,11.87
2023-02-08T00:31:15.015Z,14.83
2023-02-08T00:33:43.411Z,11.83
2023-02-08T00:36:12.831Z,12.43
2023-02-08T00:38:41.206Z,13.83
2023-02-08T00:41:09.566Z,15.60
2023-02-08T00:43:37.875Z,17.10
2023-02-08T00:46:12.623Z,13.50
2023-02-08T00:48:41.134Z,12.50
2023-02-08T00:51:12.993Z,13.83
2023-02-08T00:53:43.198Z,14.60
2023-02-08T00:56:15.810Z,13.87
2023-02-08T00:58:44.526Z,15.37
2023-02-08T01:01:14.622Z,13.10
2023-02-08T01:03:43.927Z,12.33
2023-02-08T01:06:15.442Z,14.00
2023-02-08T01:08:43.869Z,11.77
2023-02-08T01:11:15.240Z,14.40
2023-02-08T01:13:43.657Z,10.53
2023-02-08T01:16:15.667Z,13.90
2023-02-08T01:18:45.636Z,14.70
2023-02-08T01:21:16.682Z,13.23
2023-02-08T01:23:46.655Z,13.70
2023-02-08T01:26:16.134Z,15.60
2023-02-08T01:28:45.051Z,16.23
2023-02-08T01:31:16.823Z,14.47
2023-02-08T01:33:45.233Z,13.03
2023-02-08T01:36:14.131Z,12.97
2023-02-08T01:38:42.471Z,15.80
2023-02-08T01:41:17.473Z,14.40
2023-02-08T01:44:08.103Z,14.40
2023-02-08T01:46:39.949Z,17.87
2023-02-08T01:49:11.946Z,14.17
2023-02-08T01:51:46.475Z,13.93
2023-02-08T01:54:17.459Z,14.57
2023-02-08T01:56:46.668Z,18.53
2023-02-08T01:59:18.960Z,17.60
2023-02-08T02:01:51.998Z,12.73
2023-02-08T02:04:21.102Z,14.73
2023-02-08T02:06:53.842Z,14.10
2023-02-08T02:09:29.522Z,14.63
2023-02-08T02:11:58.942Z,14.87
2023-02-08T02:14:27.572Z,15.47
2023-02-08T02:17:00.241Z,19.93
2023-02-08T02:19:38.486Z,18.20
2023-02-08T02:22:24.974Z,14.97
2023-02-08T02:25:19.285Z,14.80
2023-02-08T02:28:28.963Z,14.93
2023-02-08T02:31:24.734Z,14.27
2023-02-08T02:34:05.729Z,15.47
2023-02-08T02:36:45.266Z,12.67
2023-02-08T02:39:22.027Z,12.43
2023-02-08T02:42:16.081Z,13.17
2023-02-08T02:44:55.833Z,13.03
2023-02-08T02:47:33.716Z,13.53
2023-02-08T02:50:07.841Z,13.00
2023-02-08T02:52:41.224Z,13.90
2023-02-08T02:55:14.534Z,14.47
2023-02-08T02:57:48.162Z,14.77
2023-02-08T03:00:22.656Z,13.97
2023-02-08T03:02:52.870Z,16.20
2023-02-08T03:05:21.175Z,11.13
2023-02-08T03:08:08.461Z,12.30
2023-02-08T03:10:55.275Z,14.50
2023-02-08T03:13:33.133Z,13.17
2023-02-08T03:16:08.135Z,15.60
2023-02-08T03:18:47.874Z,11.70
2023-02-08T03:21:21.853Z,15.23
2023-02-08T03:23:58.564Z,12.63
2023-02-08T03:26:35.949Z,11.10
2023-02-08T03:29:08.956Z,18.17
2023-02-08T03:31:44.586Z,10.53
2023-02-08T03:34:20.878Z,12.23
2023-02-08T03:36:51.776Z,16.03
2023-02-08T03:39:26.385Z,11.63
2023-02-08T03:41:59.871Z,12.57
2023-02-08T03:44:34.557Z,14.93
2023-02-08T03:47:08.412Z,13.17
2023-02-08T03:49:40.189Z,11.90
2023-02-08T03:52:11.300Z,13.83
2023-02-08T03:54:43.821Z,15.53
2023-02-08T03:57:18.453Z,17.10
2023-02-08T03:59:52.707Z,12.63
2023-02-08T04:02:23.868Z,13.37
2023-02-08T04:04:55.153Z,23.23
2023-02-08T04:07:23.664Z,20.60
2023-02-08T04:09:52.054Z,13.40
2023-02-08T04:12:20.467Z,12.33
2023-02-08T04:14:48.788Z,11.57
2023-02-08T04:17:17.283Z,12.10
2023-02-08T04:19:45.605Z,11.90
2023-02-08T04:22:17.572Z,10.83
2023-02-08T04:24:45.892Z,12.43
2023-02-08T04:27:14.271Z,19.17
2023-02-08T04:29:42.724Z,12.90
2023-02-08T04:32:11.765Z,14.73
2023-02-08T04:34:40.205Z,13.27
2023-02-08T04:37:09.180Z,11.13
2023-02-08T04:39:39.267Z,15.30
2023-02-08T04:42:07.774Z,13.13
2023-02-08T04:44:36.087Z,12.33
2023-02-08T04:47:04.496Z,10.77
2023-02-08T04:49:32.788Z,16.50
2023-02-08T04:52:01.209Z,11.60
2023-02-08T04:54:29.524Z,14.27
2023-02-08T04:56:59.236Z,12.20
2023-02-08T04:59:27.718Z,13.23
2023-02-08T05:01:56.124Z,13.83
2023-02-08T05:04:24.461Z,11.17
2023-02-08T05:06:52.741Z,15.50
2023-02-08T05:09:21.205Z,17.60
2023-02-08T05:11:49.601Z,13.63
2023-02-08T05:14:19.351Z,14.00
2023-02-08T05:16:47.669Z,12.43
2023-02-08T05:19:15.985Z,22.37
2023-02-08T05:21:44.374Z,14.43
2023-02-08T05:24:12.955Z,12.83
2023-02-08T05:26:41.728Z,13.47
2023-02-08T05:29:10.677Z,15.50
2023-02-08T05:31:40.729Z,12.93
2023-02-08T05:34:09.126Z,15.13
2023-02-08T05:36:37.547Z,14.17
2023-02-08T05:39:06.244Z,15.50
2023-02-08T05:41:34.594Z,14.40
2023-02-08T05:44:02.922Z,16.13
2023-02-08T05:46:37.105Z,19.03
2023-02-08T05:49:08.181Z,17.43
2023-02-08T05:51:36.545Z,21.07
2023-02-08T05:54:04.905Z,15.73
2023-02-08T05:56:33.420Z,13.37
2023-02-08T05:59:02.285Z,16.17
2023-02-08T06:01:31.720Z,19.53
2023-02-08T06:04:00.659Z,16.23
2023-02-08T06:06:30.406Z,16.13
2023-02-08T06:08:58.756Z,13.60
2023-02-08T06:11:28.307Z,13.87
2023-02-08T06:13:57.004Z,16.87
2023-02-08T06:16:25.375Z,17.43
2023-02-08T06:18:53.733Z,15.30
2023-02-08T06:21:24.397Z,13.57
2023-02-08T06:23:54.293Z,17.00
2023-02-08T06:26:22.581Z,13.47
2023-02-08T06:28:50.876Z,20.43
2023-02-08T06:31:19.286Z,12.93
2023-02-08T06:33:47.638Z,11.47
2023-02-08T06:36:15.970Z,16.97
2023-02-08T06:38:44.324Z,13.27
2023-02-08T06:41:14.182Z,12.40
2023-02-08T06:43:42.936Z,17.27
2023-02-08T06:46:11.561Z,20.67
2023-02-08T06:48:39.951Z,19.40
2023-02-08T06:51:08.271Z,17.07
2023-02-08T06:53:36.649Z,21.87
2023-02-08T06:56:05.313Z,16.70
2023-02-08T06:58:34.957Z,23.63
2023-02-08T07:01:03.384Z,17.90
2023-02-08T07:03:31.722Z,15.80
2023-02-08T07:06:05.054Z,16.67
2023-02-08T07:08:34.639Z,24.73
2023-02-08T07:11:08.092Z,21.27
2023-02-08T07:13:38.803Z,22.00
2023-02-08T07:16:08.392Z,20.53
2023-02-08T07:18:37.462Z,21.10
2023-02-08T07:21:06.737Z,22.47
2023-02-08T07:23:35.105Z,25.60
2023-02-08T07:26:05.458Z,20.67
2023-02-08T07:28:34.201Z,19.00
2023-02-08T07:31:07.845Z,21.50
2023-02-08T07:33:36.242Z,20.10
2023-02-08T07:36:05.359Z,22.00
2023-02-08T07:38:34.620Z,21.53
2023-02-08T07:41:03.918Z,22.20
2023-02-08T07:43:34.531Z,17.83
2023-02-08T07:46:08.605Z,16.80
2023-02-08T07:48:40.023Z,18.73
2023-02-08T07:51:09.885Z,14.33
2023-02-08T07:53:38.625Z,17.97
2023-02-08T07:56:07.358Z,15.10
2023-02-08T07:58:36.082Z,18.60
2023-02-08T08:01:16.135Z,19.60
2023-02-08T08:03:51.704Z,17.23
2023-02-08T08:06:20.234Z,15.13
2023-02-08T08:08:48.550Z,19.03
2023-02-08T08:11:17.993Z,48.17
2023-02-08T08:13:46.678Z,25.50
2023-02-08T08:16:15.647Z,22.20
2023-02-08T08:18:44.161Z,22.30
2023-02-08T08:21:15.019Z,21.57
2023-02-08T08:23:46.974Z,15.67
2023-02-08T08:26:17.687Z,25.60
2023-02-08T08:28:47.304Z,25.37
2023-02-08T08:31:17.778Z,26.83
2023-02-08T08:33:46.740Z,29.10
2023-02-08T08:36:16.713Z,22.03
2023-02-08T08:38:45.027Z,22.93
2023-02-08T08:41:15.316Z,18.57
2023-02-08T08:43:43.854Z,21.00
2023-02-08T08:46:12.580Z,12.73
2023-02-08T08:48:41.020Z,15.90
2023-02-08T08:51:09.386Z,15.77
2023-02-08T08:53:39.116Z,19.43
2023-02-08T08:56:08.164Z,17.60
2023-02-08T08:58:36.654Z,16.60
2023-02-08T09:01:05.139Z,12.70
2023-02-08T09:03:33.701Z,16.33
2023-02-08T09:06:02.154Z,12.03
2023-02-08T09:08:30.521Z,22.10
2023-02-08T09:11:05.844Z,18.20
2023-02-08T09:13:34.441Z,20.00
2023-02-08T09:16:09.376Z,22.07
2023-02-08T09:18:37.757Z,23.27
2023-02-08T09:21:10.311Z,19.87
2023-02-08T09:23:38.983Z,39.30
2023-02-08T09:26:14.992Z,20.80
2023-02-08T09:28:43.431Z,33.37
2023-02-08T09:31:13.192Z,31.53
2023-02-08T09:33:42.014Z,10.50
2023-02-08T09:36:11.149Z,11.73
2023-02-08T09:38:40.370Z,12.63
2023-02-08T09:41:26.668Z,29.57
2023-02-08T09:44:06.534Z,20.83
2023-02-08T09:46:39.954Z,16.17
2023-02-08T09:49:16.508Z,13.80
2023-02-08T09:51:49.593Z,11.67
2023-02-08T09:54:21.889Z,11.20
2023-02-08T09:56:53.427Z,9.10
2023-02-08T09:59:26.823Z,12.37
2023-02-08T10:02:01.570Z,21.80
2023-02-08T10:04:39.233Z,16.67
2023-02-08T10:07:07.672Z,14.30
2023-02-08T10:09:35.993Z,17.73
2023-02-08T10:12:19.859Z,19.13
2023-02-08T10:15:03.381Z,16.33
2023-02-08T10:17:47.055Z,20.80
2023-02-08T10:20:26.845Z,21.00
2023-02-08T10:23:04.326Z,13.27
2023-02-08T10:25:48.048Z,17.00
2023-02-08T10:28:40.941Z,21.63
2023-02-08T10:31:17.867Z,13.30
2023-02-08T10:33:54.135Z,12.67
2023-02-08T10:36:27.145Z,13.67
2023-02-08T10:38:57.424Z,10.83
2023-02-08T10:41:32.422Z,15.20
2023-02-08T10:44:14.900Z,13.97
2023-02-08T10:46:48.877Z,12.50
2023-02-08T10:49:23.861Z,15.60
2023-02-08T10:51:52.869Z,11.33
2023-02-08T10:54:21.227Z,14.30
2023-02-08T10:56:54.015Z,19.93
2023-02-08T10:59:27.142Z,13.60
2023-02-08T11:01:57.413Z,12.53
2023-02-08T11:04:26.199Z,12.60
2023-02-08T11:06:54.950Z,13.50
2023-02-08T11:09:26.606Z,10.27
2023-02-08T11:11:56.501Z,11.17
2023-02-08T11:14:45.425Z,13.33
2023-02-08T11:17:28.128Z,14.77
2023-02-08T11:19:57.587Z,13.63
2023-02-08T11:22:28.937Z,14.77
2023-02-08T11:25:00.146Z,14.43
2023-02-08T11:27:34.092Z,18.23
2023-02-08T11:30:23.309Z,13.73
2023-02-08T11:33:18.436Z,12.40
2023-02-08T11:35:56.874Z,14.77
2023-02-08T11:38:28.254Z,12.13
2023-02-08T11:40:58.804Z,13.67
2023-02-08T11:43:29.825Z,12.90
2023-02-08T11:46:01.857Z,14.60
2023-02-08T11:48:42.011Z,15.00
2023-02-08T11:51:13.714Z,17.97
2023-02-08T11:53:47.401Z,15.63
2023-02-08T11:56:20.806Z,25.50
2023-02-08T11:59:03.537Z,17.20
2023-02-08T12:01:35.449Z,12.03
2023-02-08T12:04:06.537Z,13.87
2023-02-08T12:06:57.400Z,14.83
2023-02-08T12:09:43.774Z,17.10
2023-02-08T12:12:25.073Z,14.67
2023-02-08T12:15:05.884Z,16.47
2023-02-08T12:17:51.137Z,14.50
2023-02-08T12:20:39.134Z,16.37
2023-02-08T12:23:23.522Z,13.70
2023-02-08T12:26:02.311Z,15.20
2023-02-08T12:28:43.492Z,18.40
2023-02-08T12:31:20.406Z,15.90
2023-02-08T12:34:02.958Z,16.77
2023-02-08T12:36:49.289Z,14.40
2023-02-08T12:39:52.014Z,15.47
2023-02-08T12:42:42.773Z,14.00
2023-02-08T12:45:58.480Z,14.93
2023-02-08T12:48:41.551Z,14.17
2023-02-08T12:51:21.819Z,21.60
2023-02-08T12:53:55.099Z,18.60
2023-02-08T12:56:28.494Z,15.87
2023-02-08T12:59:12.823Z,17.53
2023-02-08T13:01:45.887Z,15.97
2023-02-08T13:04:19.496Z,17.50
2023-02-08T13:06:53.863Z,16.73
2023-02-08T13:09:38.079Z,19.17
2023-02-08T13:12:15.541Z,16.60
2023-02-08T13:14:47.709Z,21.27
2023-02-08T13:17:20.645Z,15.60
2023-02-08T13:20:00.903Z,17.10
2023-02-08T13:22:40.938Z,18.17
2023-02-08T13:25:17.838Z,16.30
2023-02-08T13:27:46.580Z,17.30
2023-02-08T13:30:20.128Z,21.20
2023-02-08T13:32:51.734Z,19.67
2023-02-08T13:35:25.092Z,17.60
2023-02-08T13:38:01.799Z,17.40
2023-02-08T13:40:33.017Z,19.23
2023-02-08T13:43:34.941Z,17.70
2023-02-08T13:46:05.417Z,16.87
2023-02-08T13:48:45.075Z,15.00
2023-02-08T13:51:55.728Z,15.27
2023-02-08T13:54:25.641Z,17.43
2023-02-08T13:56:54.709Z,16.57
2023-02-08T13:59:33.709Z,18.40
2023-02-08T14:02:27.058Z,16.97
2023-02-08T14:05:20.505Z,16.30
2023-02-08T14:07:49.983Z,16.70
2023-02-08T14:10:37.533Z,16.30
2023-02-08T14:13:17.325Z,17.53
2023-02-08T14:15:46.198Z,23.20
2023-02-08T14:18:27.640Z,21.87
2023-02-08T14:21:04.155Z,16.97
2023-02-08T14:23:38.817Z,18.97
2023-02-08T14:26:20.775Z,18.07
2023-02-08T14:28:55.935Z,20.17
2023-02-08T14:31:38.906Z,17.77
2023-02-08T14:34:08.033Z,18.43
2023-02-08T14:36:37.425Z,20.70
2023-02-08T14:39:23.976Z,23.13
2023-02-08T14:41:57.272Z,19.27
2023-02-08T14:45:05.645Z,16.87
2023-02-08T14:48:07.955Z,16.30
2023-02-08T14:50:44.461Z,15.47
2023-02-08T14:53:24.309Z,23.60
2023-02-08T14:55:59.184Z,18.07
2023-02-08T14:58:32.114Z,16.80
2023-02-08T15:01:05.796Z,26.90
2023-02-08T15:03:36.031Z,18.57
2023-02-08T15:07:00.188Z,18.67
2023-02-08T15:09:31.346Z,18.63
2023-02-08T15:12:03.004Z,17.70
2023-02-08T15:14:36.438Z,17.47
2023-02-08T15:17:04.823Z,19.73
2023-02-08T15:19:35.792Z,17.90
2023-02-08T15:22:33.062Z,17.27
2023-02-08T15:25:05.679Z,16.23
2023-02-08T15:27:35.267Z,21.73
2023-02-08T15:30:05.607Z,15.23
2023-02-08T15:32:34.810Z,20.00
2023-02-08T15:35:05.228Z,21.30
2023-02-08T15:37:35.158Z,19.83
2023-02-08T15:40:04.883Z,16.27
2023-02-08T15:42:34.997Z,17.37
2023-02-08T15:45:05.237Z,23.03
2023-02-08T15:47:36.239Z,17.77
2023-02-08T15:50:07.827Z,18.10
2023-02-08T15:52:39.509Z,16.83
2023-02-08T15:55:08.983Z,13.30
2023-02-08T15:57:44.087Z,21.67
2023-02-08T16:00:18.918Z,16.20
2023-02-08T16:02:53.142Z,18.60
2023-02-08T16:05:24.422Z,15.90
2023-02-08T16:07:53.896Z,16.73
2023-02-08T16:10:26.712Z,17.00
2023-02-08T16:12:58.551Z,25.53
2023-02-08T16:15:45.005Z,20.00
2023-02-08T16:18:40.680Z,23.80
2023-02-08T16:21:27.915Z,18.27
2023-02-08T16:23:58.670Z,17.60
2023-02-08T16:26:29.198Z,18.87
2023-02-08T16:29:00.463Z,16.00
2023-02-08T16:31:32.873Z,20.00
2023-02-08T16:34:04.360Z,21.33
2023-02-08T16:36:36.979Z,18.50
2023-02-08T16:39:39.331Z,21.83
2023-02-08T16:42:21.259Z,18.17
2023-02-08T16:45:12.910Z,27.73
2023-02-08T16:47:44.367Z,21.77
2023-02-08T16:50:15.016Z,19.87
2023-02-08T16:52:43.627Z,19.10
2023-02-08T16:55:23.990Z,24.33
2023-02-08T16:57:53.799Z,18.83
2023-02-08T17:00:26.983Z,19.03
2023-02-08T17:02:57.312Z,17.00
2023-02-08T17:05:28.279Z,16.77
2023-02-08T17:07:57.106Z,16.73
2023-02-08T17:10:29.010Z,17.93
2023-02-08T17:13:13.437Z,20.27
2023-02-08T17:15:46.260Z,15.10
2023-02-08T17:18:16.240Z,16.77
2023-02-08T17:20:44.936Z,21.50
2023-02-08T17:23:15.476Z,17.67
2023-02-08T17:25:44.415Z,17.47
2023-02-08T17:28:18.309Z,19.03
2023-02-08T17:30:47.899Z,17.53
2023-02-08T17:33:21.138Z,16.17
2023-02-08T17:35:51.039Z,15.53
2023-02-08T17:38:20.727Z,17.70
2023-02-08T17:40:49.562Z,19.00
2023-02-08T17:43:17.902Z,26.60
2023-02-08T17:45:46.557Z,32.87
2023-02-08T17:48:15.375Z,39.03
2023-02-08T17:50:50.783Z,35.10
2023-02-08T17:53:19.930Z,25.63
2023-02-08T17:55:48.724Z,20.00
2023-02-08T17:58:17.732Z,19.93
2023-02-08T18:00:46.366Z,26.43
2023-02-08T18:03:17.226Z,33.83
2023-02-08T18:05:46.979Z,62.20
2023-02-08T18:08:17.201Z,132.57
2023-02-08T18:10:45.671Z,97.60
2023-02-08T18:13:14.101Z,70.67
2023-02-08T18:15:43.119Z,80.13
2023-02-08T18:18:11.721Z,56.97
2023-02-08T18:20:44.322Z,61.47
2023-02-08T18:23:14.700Z,51.23
2023-02-08T18:25:43.365Z,35.93
2023-02-08T18:28:15.118Z,33.53
2023-02-08T18:30:43.921Z,39.07
2023-02-08T18:33:13.652Z,37.67
2023-02-08T18:35:42.366Z,37.33
2023-02-08T18:38:10.945Z,29.07
2023-02-08T18:40:41.283Z,26.40
2023-02-08T18:43:09.608Z,20.40
2023-02-08T18:45:37.944Z,21.97
2023-02-08T18:48:06.482Z,23.03
2023-02-08T18:50:34.863Z,22.43
2023-02-08T18:53:03.459Z,21.43
2023-02-08T18:55:32.046Z,28.33
2023-02-08T18:58:01.805Z,30.63
2023-02-08T19:00:30.150Z,30.07
2023-02-08T19:02:58.634Z,20.73
2023-02-08T19:05:27.497Z,19.03
2023-02-08T19:07:55.848Z,23.23
2023-02-08T19:10:24.317Z,17.80
2023-02-08T19:12:52.924Z,27.60
2023-02-08T19:15:22.712Z,21.30
2023-02-08T19:17:51.349Z,23.87
2023-02-08T19:20:20.371Z,24.40
2023-02-08T19:22:49.087Z,31.80
2023-02-08T19:25:17.555Z,22.90
2023-02-08T19:27:49.987Z,25.40
2023-02-08T19:30:20.027Z,19.07
2023-02-08T19:32:49.761Z,74.43
2023-02-08T19:35:18.373Z,28.00
2023-02-08T19:37:50.225Z,18.03
2023-02-08T19:40:19.614Z,16.67
2023-02-08T19:42:48.947Z,18.57
2023-02-08T19:45:17.499Z,18.40
2023-02-08T19:47:51.443Z,18.93
2023-02-08T19:50:21.714Z,18.47
2023-02-08T19:52:50.122Z,16.80
2023-02-08T19:55:18.742Z,18.17
2023-02-08T19:57:47.284Z,17.73
2023-02-08T20:00:23.377Z,18.93
2023-02-08T20:02:52.712Z,17.97
2023-02-08T20:05:22.495Z,16.37
2023-02-08T20:07:50.906Z,18.90
2023-02-08T20:10:19.342Z,20.07
2023-02-08T20:12:47.864Z,19.10
2023-02-08T20:15:16.824Z,28.23
2023-02-08T20:17:45.699Z,23.10
2023-02-08T20:20:14.342Z,34.80
2023-02-08T20:22:45.910Z,27.43
2023-02-08T20:25:14.977Z,23.03
2023-02-08T20:27:43.320Z,28.77
2023-02-08T20:30:12.859Z,25.27
2023-02-08T20:32:41.514Z,21.07
2023-02-08T20:35:09.975Z,23.50
2023-02-08T20:37:38.706Z,29.57
2023-02-08T20:40:10.809Z,32.97
2023-02-08T20:42:39.676Z,31.63
2023-02-08T20:45:09.757Z,32.03
2023-02-08T20:47:46.381Z,32.63
2023-02-08T20:50:19.039Z,22.60
2023-02-08T20:52:49.110Z,22.07
2023-02-08T20:55:19.194Z,45.60
2023-02-08T20:57:47.577Z,23.53
2023-02-08T21:00:16.452Z,20.93
2023-02-08T21:02:46.145Z,16.97
2023-02-08T21:05:14.575Z,18.73
2023-02-08T21:07:43.041Z,19.93
2023-02-08T21:10:11.501Z,18.63
2023-02-08T21:12:41.222Z,21.30
2023-02-08T21:15:11.265Z,26.93
2023-02-08T21:17:41.083Z,24.73
2023-02-08T21:20:12.088Z,19.47
2023-02-08T21:22:40.540Z,19.87
2023-02-08T21:25:10.074Z,23.37
2023-02-08T21:27:38.574Z,23.07
2023-02-08T21:30:09.348Z,26.07
2023-02-08T21:32:48.551Z,22.00
2023-02-08T21:35:17.666Z,21.57
2023-02-08T21:37:46.016Z,22.83
2023-02-08T21:40:14.524Z,19.13
2023-02-08T21:42:43.653Z,22.60
2023-02-08T21:45:13.571Z,22.63
2023-02-08T21:47:42.303Z,17.27
2023-02-08T21:50:29.265Z,21.00
2023-02-08T21:53:15.418Z,22.90
2023-02-08T21:55:46.956Z,27.50
2023-02-08T21:58:15.548Z,19.77
2023-02-08T22:00:45.970Z,20.40
2023-02-08T22:03:18.731Z,21.67
2023-02-08T22:06:05.295Z,19.03
2023-02-08T22:08:33.986Z,20.00
2023-02-08T22:11:04.820Z,19.83
2023-02-08T22:13:33.823Z,25.73
2023-02-08T22:16:09.684Z,27.40
2023-02-08T22:18:41.512Z,20.20
2023-02-08T22:21:10.284Z,25.90
2023-02-08T22:23:38.906Z,24.07
2023-02-08T22:26:11.233Z,20.73
2023-02-08T22:28:39.710Z,22.70
2023-02-08T22:31:10.029Z,24.57
2023-02-08T22:33:38.801Z,24.90
2023-02-08T22:36:08.399Z,26.10
2023-02-08T22:38:37.233Z,33.87
2023-02-08T22:41:10.826Z,27.57
2023-02-08T22:43:39.809Z,33.70
2023-02-08T22:46:09.995Z,32.43
2023-02-08T22:48:38.590Z,23.67
2023-02-08T22:51:08.300Z,22.23
2023-02-08T22:53:36.879Z,22.40
2023-02-08T22:56:05.805Z,27.03
2023-02-08T22:58:35.096Z,20.40
2023-02-08T23:01:03.586Z,21.30
2023-02-08T23:03:33.306Z,20.93
2023-02-08T23:06:01.638Z,20.77
2023-02-08T23:08:30.058Z,17.63
2023-02-08T23:11:01.912Z,22.57
2023-02-08T23:13:31.135Z,18.40
2023-02-08T23:15:59.773Z,21.10
2023-02-08T23:18:28.270Z,21.47
2023-02-08T23:20:57.994Z,17.50
2023-02-08T23:23:26.362Z,17.97
2023-02-08T23:25:54.677Z,15.23
2023-02-08T23:28:23.906Z,20.77
2023-02-08T23:30:52.328Z,19.20
2023-02-08T23:33:20.660Z,17.97
2023-02-08T23:35:49.135Z,19.40
2023-02-08T23:38:18.846Z,19.87
2023-02-08T23:40:47.420Z,17.50
2023-02-08T23:43:15.887Z,18.20
2023-02-08T23:45:44.198Z,18.97
2023-02-08T23:48:12.569Z,16.63
2023-02-08T23:50:41.169Z,19.03
2023-02-08T23:53:09.489Z,18.63
2023-02-08T23:55:39.157Z,18.63
2023-02-08T23:58:07.488Z,16.37
